createdAt,value
2022-08-23T00:00:26.983Z,99.90
2022-08-23T00:02:31.813Z,99.90
2022-08-23T00:04:55.833Z,99.90
2022-08-23T00:07:05.970Z,99.90
2022-08-23T00:09:08.470Z,99.90
2022-08-23T00:11:33.743Z,99.90
2022-08-23T00:13:47.262Z,99.90
2022-08-23T00:15:50.785Z,99.90
2022-08-23T00:17:52.591Z,99.90
2022-08-23T00:19:54.490Z,99.90
2022-08-23T00:21:56.629Z,99.90
2022-08-23T00:23:58.765Z,99.90
2022-08-23T00:26:03.957Z,99.90
2022-08-23T00:28:12.555Z,99.90
2022-08-23T00:30:17.752Z,99.90
2022-08-23T00:32:28.035Z,99.90
2022-08-23T00:34:30.073Z,99.90
2022-08-23T00:36:31.865Z,99.90
2022-08-23T00:38:35.087Z,99.90
2022-08-23T00:40:37.059Z,99.90
2022-08-23T00:43:22.931Z,99.90
2022-08-23T00:45:49.502Z,99.90
2022-08-23T00:47:51.444Z,99.90
2022-08-23T00:50:23.875Z,99.90
2022-08-23T00:52:40.579Z,99.90
2022-08-23T00:54:43.179Z,99.90
2022-08-23T00:56:45.013Z,99.90
2022-08-23T00:58:47.515Z,99.90
2022-08-23T01:00:51.703Z,99.90
2022-08-23T01:02:54.493Z,99.90
2022-08-23T01:04:58.850Z,99.90
2022-08-23T01:07:12.513Z,99.90
2022-08-23T01:09:18.062Z,99.90
2022-08-23T01:11:33.264Z,99.90
2022-08-23T01:13:52.872Z,99.90
2022-08-23T01:16:01.172Z,99.90
2022-08-23T01:18:08.773Z,99.90
2022-08-23T01:20:14.871Z,99.90
2022-08-23T01:22:30.183Z,99.90
2022-08-23T01:25:05.961Z,99.90
2022-08-23T01:26:54.585Z,99.90
2022-08-23T01:28:56.493Z,99.90
2022-08-23T01:30:58.371Z,99.90
2022-08-23T01:33:03.445Z,99.90
2022-08-23T01:35:06.200Z,99.90
2022-08-23T01:37:08.659Z,99.90
2022-08-23T01:39:10.704Z,99.90
2022-08-23T01:41:12.952Z,99.90
2022-08-23T01:43:15.674Z,99.90
2022-08-23T01:45:17.443Z,99.90
2022-08-23T01:47:19.184Z,99.90
2022-08-23T01:49:21.000Z,99.90
2022-08-23T01:51:23.891Z,99.90
2022-08-23T01:53:25.626Z,99.90
2022-08-23T01:55:27.668Z,99.90
2022-08-23T01:57:29.804Z,99.90
2022-08-23T01:59:31.553Z,99.90
2022-08-23T02:01:33.541Z,99.90
2022-08-23T02:03:37.187Z,99.90
2022-08-23T02:05:42.722Z,99.90
2022-08-23T02:07:44.739Z,99.90
2022-08-23T02:09:46.750Z,99.90
2022-08-23T02:11:49.750Z,99.90
2022-08-23T02:13:54.136Z,99.90
2022-08-23T02:15:57.969Z,99.90
2022-08-23T02:18:00.411Z,99.90
2022-08-23T02:20:05.266Z,99.90
2022-08-23T02:22:08.455Z,99.90
2022-08-23T02:24:13.921Z,99.90
2022-08-23T02:26:15.943Z,99.90
2022-08-23T02:28:19.254Z,99.90
2022-08-23T02:30:21.119Z,99.90
2022-08-23T02:32:22.915Z,99.90
2022-08-23T02:34:29.643Z,99.90
2022-08-23T02:36:32.126Z,99.90
2022-08-23T02:38:33.908Z,99.90
2022-08-23T02:40:36.140Z,99.90
2022-08-23T02:42:37.939Z,99.90
2022-08-23T02:44:39.913Z,99.90
2022-08-23T02:46:43.040Z,99.90
2022-08-23T02:48:44.817Z,99.90
2022-08-23T02:50:47.470Z,99.90
2022-08-23T02:52:49.274Z,99.90
2022-08-23T02:54:51.048Z,99.90
2022-08-23T02:56:55.016Z,99.90
2022-08-23T02:58:56.832Z,99.90
2022-08-23T03:00:59.632Z,99.90
2022-08-23T03:03:01.337Z,99.90
2022-08-23T03:05:05.186Z,99.90
2022-08-23T03:07:07.013Z,99.90
2022-08-23T03:09:09.110Z,99.90
2022-08-23T03:11:17.069Z,99.90
2022-08-23T03:13:20.755Z,99.90
2022-08-23T03:15:23.307Z,99.90
2022-08-23T03:17:25.157Z,99.90
2022-08-23T03:19:26.983Z,99.90
2022-08-23T03:21:28.878Z,99.90
2022-08-23T03:23:30.762Z,99.90
2022-08-23T03:25:32.602Z,99.90
2022-08-23T03:27:38.269Z,99.90
2022-08-23T03:29:46.553Z,99.90
2022-08-23T03:31:48.409Z,99.90
2022-08-23T03:33:50.152Z,99.90
2022-08-23T03:35:52.149Z,99.90
2022-08-23T03:37:55.330Z,99.90
2022-08-23T03:39:57.252Z,99.90
2022-08-23T03:41:59.974Z,99.90
2022-08-23T03:44:01.915Z,99.90
2022-08-23T03:46:04.627Z,99.90
2022-08-23T03:48:06.423Z,99.90
2022-08-23T03:50:08.563Z,99.90
2022-08-23T03:52:11.336Z,99.90
2022-08-23T03:54:13.092Z,99.90
2022-08-23T03:56:23.652Z,99.90
2022-08-23T03:58:25.927Z,99.90
2022-08-23T04:00:28.263Z,99.90
2022-08-23T04:02:30.025Z,99.90
2022-08-23T04:04:31.965Z,99.90
2022-08-23T04:06:34.048Z,99.90
2022-08-23T04:08:36.107Z,99.90
2022-08-23T04:10:39.077Z,99.90
2022-08-23T04:12:41.523Z,99.90
2022-08-23T04:14:45.040Z,99.90
2022-08-23T04:16:46.874Z,99.90
2022-08-23T04:18:48.693Z,99.90
2022-08-23T04:20:51.058Z,99.90
2022-08-23T04:22:54.507Z,99.90
2022-08-23T04:24:56.410Z,99.90
2022-08-23T04:26:58.180Z,99.90
2022-08-23T04:29:00.696Z,99.90
2022-08-23T04:31:03.648Z,99.90
2022-08-23T04:33:10.697Z,99.90
2022-08-23T04:35:13.077Z,99.90
2022-08-23T04:37:14.923Z,99.90
2022-08-23T04:39:16.773Z,99.90
2022-08-23T04:41:37.736Z,99.90
2022-08-23T04:43:40.389Z,99.90
2022-08-23T04:45:42.166Z,99.90
2022-08-23T04:47:44.830Z,99.90
2022-08-23T04:49:46.936Z,99.90
2022-08-23T04:51:53.492Z,99.90
2022-08-23T04:53:56.153Z,99.90
2022-08-23T04:55:57.921Z,99.90
2022-08-23T04:57:59.818Z,99.90
2022-08-23T05:00:02.156Z,99.90
2022-08-23T05:02:03.965Z,99.90
2022-08-23T05:04:05.866Z,99.90
2022-08-23T05:06:08.086Z,99.90
2022-08-23T05:08:10.154Z,99.90
2022-08-23T05:10:14.438Z,99.90
2022-08-23T05:12:16.213Z,99.90
2022-08-23T05:14:18.220Z,99.90
2022-08-23T05:16:20.038Z,99.90
2022-08-23T05:18:22.116Z,99.90
2022-08-23T05:20:25.893Z,99.90
2022-08-23T05:22:27.731Z,99.90
2022-08-23T05:24:29.643Z,99.90
2022-08-23T05:26:31.394Z,99.90
2022-08-23T05:28:34.830Z,99.90
2022-08-23T05:30:36.853Z,99.90
2022-08-23T05:32:40.279Z,99.90
2022-08-23T05:34:42.272Z,99.90
2022-08-23T05:36:48.398Z,99.90
2022-08-23T05:38:57.739Z,99.90
2022-08-23T05:41:02.071Z,99.90
2022-08-23T05:43:07.195Z,99.90
2022-08-23T05:45:09.636Z,99.90
2022-08-23T05:47:15.530Z,99.90
2022-08-23T05:49:17.591Z,99.90
2022-08-23T05:51:26.206Z,99.90
2022-08-23T05:53:27.943Z,99.90
2022-08-23T05:55:34.996Z,99.90
2022-08-23T05:57:38.371Z,99.90
2022-08-23T05:59:41.829Z,99.90
2022-08-23T06:01:44.297Z,99.90
2022-08-23T06:03:47.339Z,99.90
2022-08-23T06:05:49.112Z,99.90
2022-08-23T06:07:50.926Z,99.90
2022-08-23T06:09:52.734Z,99.90
2022-08-23T06:11:54.524Z,99.90
2022-08-23T06:13:59.171Z,99.90
2022-08-23T06:16:01.075Z,99.90
2022-08-23T06:18:16.825Z,99.90
2022-08-23T06:20:18.892Z,99.90
2022-08-23T06:22:20.902Z,99.90
2022-08-23T06:24:23.275Z,99.90
2022-08-23T06:26:33.919Z,99.90
2022-08-23T06:28:36.213Z,99.90
2022-08-23T06:30:56.964Z,99.90
2022-08-23T06:32:59.291Z,99.90
2022-08-23T06:35:27.788Z,99.90
2022-08-23T06:37:22.965Z,99.90
2022-08-23T06:39:26.228Z,99.90
2022-08-23T06:41:28.709Z,99.90
2022-08-23T06:43:30.532Z,99.90
2022-08-23T06:45:35.277Z,99.90
2022-08-23T06:47:37.265Z,99.90
2022-08-23T06:49:39.649Z,99.90
2022-08-23T06:51:45.338Z,99.90
2022-08-23T06:53:47.831Z,99.90
2022-08-23T06:55:49.621Z,99.90
2022-08-23T06:57:51.413Z,99.90
2022-08-23T06:59:53.179Z,99.90
2022-08-23T07:02:04.588Z,99.90
2022-08-23T07:04:08.380Z,99.90
2022-08-23T07:06:10.188Z,99.90
2022-08-23T07:08:11.939Z,99.90
2022-08-23T07:10:15.197Z,99.90
2022-08-23T07:12:19.736Z,99.90
2022-08-23T07:14:22.645Z,99.90
2022-08-23T07:16:25.725Z,99.90
2022-08-23T07:18:27.603Z,99.90
2022-08-23T07:20:29.462Z,99.90
2022-08-23T07:22:31.229Z,99.90
2022-08-23T07:24:34.061Z,99.90
2022-08-23T07:26:36.499Z,99.90
2022-08-23T07:28:41.647Z,99.90
2022-08-23T07:30:45.468Z,99.90
2022-08-23T07:32:47.437Z,99.90
2022-08-23T07:34:49.201Z,99.90
2022-08-23T07:36:54.159Z,99.90
2022-08-23T07:38:57.568Z,99.90
2022-08-23T07:40:59.411Z,99.90
2022-08-23T07:43:01.352Z,99.90
2022-08-23T07:45:04.028Z,99.90
2022-08-23T07:47:06.000Z,99.90
2022-08-23T07:49:09.954Z,99.90
2022-08-23T07:51:14.561Z,99.90
2022-08-23T07:53:16.716Z,99.90
2022-08-23T07:55:34.296Z,99.90
2022-08-23T07:57:36.178Z,99.90
2022-08-23T07:59:38.024Z,99.90
2022-08-23T08:01:43.306Z,99.90
2022-08-23T08:03:47.868Z,99.90
2022-08-23T08:05:49.622Z,99.90
2022-08-23T08:07:51.361Z,99.90
2022-08-23T08:09:53.487Z,99.90
2022-08-23T08:11:56.121Z,99.90
2022-08-23T08:13:58.563Z,99.90
2022-08-23T08:16:00.390Z,99.90
2022-08-23T08:18:02.562Z,99.90
2022-08-23T08:20:08.127Z,99.90
2022-08-23T08:22:10.053Z,99.80
2022-08-23T08:24:14.368Z,99.40
2022-08-23T08:26:17.189Z,99.10
2022-08-23T08:28:18.927Z,98.30
2022-08-23T08:30:20.744Z,97.10
2022-08-23T08:32:22.544Z,97.90
2022-08-23T08:34:24.689Z,97.60
2022-08-23T08:36:31.032Z,97.00
2022-08-23T08:38:36.813Z,96.30
2022-08-23T08:40:41.487Z,96.10
2022-08-23T08:43:07.342Z,95.00
2022-08-23T08:45:32.549Z,93.60
2022-08-23T08:47:52.380Z,92.40
2022-08-23T08:50:09.703Z,92.10
2022-08-23T08:52:18.731Z,91.60
2022-08-23T08:54:27.459Z,91.90
2022-08-23T08:56:34.922Z,91.80
2022-08-23T08:58:48.791Z,92.00
2022-08-23T09:00:55.194Z,91.90
2022-08-23T09:03:01.158Z,91.70
2022-08-23T09:05:11.317Z,91.00
2022-08-23T09:07:31.059Z,91.40
2022-08-23T09:10:05.173Z,91.90
2022-08-23T09:12:28.225Z,91.00
2022-08-23T09:14:47.432Z,90.40
2022-08-23T09:16:57.990Z,88.90
2022-08-23T09:19:02.343Z,88.80
2022-08-23T09:21:08.154Z,88.60
2022-08-23T09:23:22.877Z,88.20
2022-08-23T09:25:24.962Z,87.10
2022-08-23T09:27:26.913Z,87.50
2022-08-23T09:29:34.222Z,87.40
2022-08-23T09:31:39.502Z,86.10
2022-08-23T09:33:44.126Z,84.10
2022-08-23T09:36:22.588Z,83.60
2022-08-23T09:38:26.918Z,82.20
2022-08-23T09:40:34.330Z,83.50
2022-08-23T09:42:39.472Z,82.30
2022-08-23T09:44:43.517Z,80.60
2022-08-23T09:46:45.673Z,79.50
2022-08-23T09:48:48.036Z,80.10
2022-08-23T09:50:56.994Z,78.40
2022-08-23T09:53:04.414Z,78.10
2022-08-23T09:55:25.120Z,78.90
2022-08-23T09:57:29.999Z,78.20
2022-08-23T09:59:39.892Z,78.00
2022-08-23T10:01:48.403Z,76.70
2022-08-23T10:04:10.300Z,75.20
2022-08-23T10:06:17.257Z,74.80
2022-08-23T10:08:32.868Z,72.60
2022-08-23T10:10:51.165Z,71.40
2022-08-23T10:12:54.410Z,70.60
2022-08-23T10:14:57.858Z,71.80
2022-08-23T10:17:14.711Z,71.10
2022-08-23T10:19:29.236Z,71.00
2022-08-23T10:21:39.651Z,71.00
2022-08-23T10:23:51.949Z,71.50
2022-08-23T10:26:02.753Z,72.70
2022-08-23T10:28:29.276Z,73.90
2022-08-23T10:30:51.756Z,73.60
2022-08-23T10:33:08.387Z,70.10
2022-08-23T10:35:49.460Z,71.60
2022-08-23T10:37:51.176Z,72.30
2022-08-23T10:40:04.139Z,72.30
2022-08-23T10:42:18.905Z,71.90
2022-08-23T10:44:35.797Z,71.30
2022-08-23T10:46:46.978Z,69.80
2022-08-23T10:48:55.274Z,68.20
2022-08-23T10:51:07.787Z,69.10
2022-08-23T10:53:13.583Z,70.00
2022-08-23T10:55:35.397Z,69.80
2022-08-23T10:57:40.365Z,68.20
2022-08-23T10:59:43.882Z,67.80
2022-08-23T11:01:51.598Z,70.20
2022-08-23T11:04:02.674Z,69.80
2022-08-23T11:06:35.585Z,68.60
2022-08-23T11:08:47.528Z,69.40
2022-08-23T11:10:55.936Z,69.10
2022-08-23T11:13:21.652Z,69.20
2022-08-23T11:15:44.455Z,66.10
2022-08-23T11:17:49.642Z,65.70
2022-08-23T11:20:03.930Z,64.30
2022-08-23T11:22:24.819Z,63.60
2022-08-23T11:24:32.019Z,63.10
2022-08-23T11:26:37.743Z,64.90
2022-08-23T11:28:43.099Z,65.80
2022-08-23T11:31:11.794Z,65.70
2022-08-23T11:33:19.402Z,64.60
2022-08-23T11:35:44.415Z,64.70
2022-08-23T11:38:03.987Z,62.70
2022-08-23T11:40:16.071Z,63.10
2022-08-23T11:42:19.986Z,61.60
2022-08-23T11:44:34.265Z,62.30
2022-08-23T11:46:51.207Z,60.30
2022-08-23T11:49:20.752Z,59.40
2022-08-23T11:51:35.160Z,60.60
2022-08-23T11:53:55.093Z,61.10
2022-08-23T11:56:12.652Z,60.80
2022-08-23T11:58:26.676Z,61.80
2022-08-23T12:01:06.096Z,61.30
2022-08-23T12:03:33.553Z,61.60
2022-08-23T12:05:38.730Z,60.10
2022-08-23T12:08:01.539Z,60.10
2022-08-23T12:10:04.964Z,60.20
2022-08-23T12:12:32.468Z,61.30
2022-08-23T12:14:50.334Z,60.80
2022-08-23T12:16:52.127Z,59.30
2022-08-23T12:19:02.980Z,59.70
2022-08-23T12:21:09.023Z,58.50
2022-08-23T12:23:17.326Z,58.50
2022-08-23T12:25:21.388Z,57.10
2022-08-23T12:27:49.043Z,57.70
2022-08-23T12:30:20.319Z,59.70
2022-08-23T12:32:40.908Z,57.90
2022-08-23T12:34:58.602Z,58.80
2022-08-23T12:37:30.105Z,58.20
2022-08-23T12:39:37.013Z,57.90
2022-08-23T12:42:02.809Z,59.10
2022-08-23T12:44:08.674Z,57.70
2022-08-23T12:46:10.552Z,56.40
2022-08-23T12:48:14.480Z,56.70
2022-08-23T12:50:19.965Z,57.70
2022-08-23T12:52:27.343Z,56.40
2022-08-23T12:54:34.977Z,55.90
2022-08-23T12:56:37.038Z,55.90
2022-08-23T12:58:45.468Z,54.70
2022-08-23T13:00:56.470Z,53.80
2022-08-23T13:03:10.323Z,52.70
2022-08-23T13:05:27.085Z,52.30
2022-08-23T13:07:29.983Z,53.70
2022-08-23T13:09:40.513Z,53.40
2022-08-23T13:11:43.866Z,52.60
2022-08-23T13:13:45.718Z,54.70
2022-08-23T13:15:47.597Z,53.50
2022-08-23T13:18:00.936Z,51.10
2022-08-23T13:20:03.470Z,50.90
2022-08-23T13:22:19.375Z,51.30
2022-08-23T13:24:40.608Z,51.20
2022-08-23T13:26:43.981Z,52.60
2022-08-23T13:29:15.866Z,52.90
2022-08-23T13:31:17.794Z,53.00
2022-08-23T13:33:21.561Z,52.50
2022-08-23T13:35:29.927Z,53.10
2022-08-23T13:37:33.240Z,52.30
2022-08-23T13:39:35.127Z,52.00
2022-08-23T13:41:39.019Z,51.20
2022-08-23T13:43:43.833Z,50.80
2022-08-23T13:45:52.122Z,51.50
2022-08-23T13:48:02.472Z,51.20
2022-08-23T13:50:08.518Z,49.00
2022-08-23T13:54:35.774Z,48.90
2022-08-23T13:56:53.319Z,50.60
2022-08-23T13:59:01.165Z,50.60
2022-08-23T14:01:04.975Z,50.10
2022-08-23T14:03:07.882Z,49.50
2022-08-23T14:05:10.207Z,48.90
2022-08-23T14:07:12.659Z,49.30
2022-08-23T14:09:15.510Z,48.60
2022-08-23T14:11:17.636Z,49.00
2022-08-23T14:13:24.374Z,48.60
2022-08-23T14:17:51.635Z,47.40
2022-08-23T14:22:17.678Z,47.90
2022-08-23T14:24:20.074Z,47.00
2022-08-23T14:26:23.252Z,46.80
2022-08-23T14:28:29.558Z,46.70
2022-08-23T14:30:35.940Z,47.20
2022-08-23T14:32:40.704Z,47.50
2022-08-23T14:34:42.489Z,46.30
2022-08-23T14:37:21.663Z,45.90
2022-08-23T14:39:06.113Z,46.50
2022-08-23T14:41:10.860Z,46.10
2022-08-23T14:43:12.645Z,45.40
2022-08-23T14:45:16.264Z,46.00
2022-08-23T14:47:18.538Z,45.20
2022-08-23T14:49:21.463Z,45.00
2022-08-23T14:51:36.099Z,44.30
2022-08-23T14:53:45.030Z,44.70
2022-08-23T14:56:01.118Z,44.30
2022-08-23T14:58:11.389Z,44.10
2022-08-23T15:00:14.038Z,44.50
2022-08-23T15:02:21.212Z,45.00
2022-08-23T15:04:24.419Z,43.90
2022-08-23T15:06:26.851Z,44.30
2022-08-23T15:08:28.975Z,44.60
2022-08-23T15:13:12.811Z,44.50
2022-08-23T15:15:21.738Z,44.60
2022-08-23T15:17:30.341Z,43.80
2022-08-23T15:19:33.216Z,44.30
2022-08-23T15:21:35.067Z,44.10
2022-08-23T15:23:36.873Z,43.20
2022-08-23T15:25:41.375Z,43.50
2022-08-23T15:27:44.932Z,42.40
2022-08-23T15:29:46.702Z,41.70
2022-08-23T15:31:48.480Z,41.20
2022-08-23T15:33:51.721Z,41.70
2022-08-23T15:35:54.653Z,41.80
2022-08-23T15:37:57.274Z,40.10
2022-08-23T15:39:59.342Z,41.30
2022-08-23T15:42:01.174Z,39.60
2022-08-23T15:44:03.410Z,39.80
2022-08-23T15:46:07.639Z,39.40
2022-08-23T15:48:24.002Z,39.60
2022-08-23T15:50:30.979Z,38.90
2022-08-23T15:52:32.816Z,38.70
2022-08-23T15:54:34.732Z,39.00
2022-08-23T15:56:46.984Z,38.90
2022-08-23T15:58:49.070Z,39.00
2022-08-23T16:00:52.218Z,38.90
2022-08-23T16:03:20.438Z,39.30
2022-08-23T16:05:16.493Z,38.80
2022-08-23T16:07:18.794Z,39.60
2022-08-23T16:09:23.981Z,40.80
2022-08-23T16:11:26.129Z,40.70
2022-08-23T16:13:28.305Z,38.30
2022-08-23T16:15:30.112Z,37.80
2022-08-23T16:17:32.031Z,37.00
2022-08-23T16:19:33.992Z,37.70
2022-08-23T16:21:36.576Z,39.00
2022-08-23T16:23:40.023Z,40.00
2022-08-23T16:25:42.228Z,39.90
2022-08-23T16:27:44.048Z,39.20
2022-08-23T16:29:45.892Z,39.10
2022-08-23T16:31:48.132Z,38.50
2022-08-23T16:33:49.938Z,38.50
2022-08-23T16:35:51.752Z,37.90
2022-08-23T16:37:54.611Z,39.10
2022-08-23T16:39:56.461Z,39.10
2022-08-23T16:42:01.300Z,39.20
2022-08-23T16:44:03.528Z,39.30
2022-08-23T16:46:05.740Z,39.50
2022-08-23T16:48:10.644Z,39.40
2022-08-23T16:50:15.005Z,39.40
2022-08-23T16:52:17.386Z,40.00
2022-08-23T16:54:22.415Z,40.60
2022-08-23T16:56:24.202Z,40.90
2022-08-23T16:58:26.235Z,41.20
2022-08-23T17:00:28.055Z,41.40
2022-08-23T17:02:33.223Z,41.50
2022-08-23T17:04:35.022Z,42.10
2022-08-23T17:06:36.891Z,42.50
2022-08-23T17:08:38.799Z,42.40
2022-08-23T17:10:41.025Z,42.70
2022-08-23T17:12:47.172Z,43.20
2022-08-23T17:14:51.374Z,44.40
2022-08-23T17:16:53.583Z,44.20
2022-08-23T17:18:57.342Z,44.70
2022-08-23T17:20:59.196Z,45.30
2022-08-23T17:23:01.192Z,45.30
2022-08-23T17:25:09.673Z,46.00
2022-08-23T17:27:19.085Z,46.10
2022-08-23T17:29:21.975Z,47.20
2022-08-23T17:31:24.210Z,47.10
2022-08-23T17:33:26.066Z,47.30
2022-08-23T17:35:33.729Z,48.00
2022-08-23T17:37:36.974Z,48.20
2022-08-23T17:39:39.557Z,48.50
2022-08-23T17:41:45.370Z,49.10
2022-08-23T17:43:47.888Z,49.60
2022-08-23T17:45:51.586Z,50.10
2022-08-23T17:47:54.044Z,50.60
2022-08-23T17:49:56.009Z,51.10
2022-08-23T17:51:57.845Z,52.00
2022-08-23T17:53:59.797Z,52.80
2022-08-23T17:56:02.052Z,53.40
2022-08-23T17:58:08.388Z,53.80
2022-08-23T18:00:13.389Z,54.80
2022-08-23T18:02:15.632Z,55.80
2022-08-23T18:04:17.955Z,56.40
2022-08-23T18:06:20.249Z,56.60
2022-08-23T18:08:22.048Z,57.00
2022-08-23T18:10:24.510Z,57.70
2022-08-23T18:12:26.293Z,58.30
2022-08-23T18:14:28.241Z,58.90
2022-08-23T18:16:35.010Z,59.50
2022-08-23T18:18:37.942Z,59.80
2022-08-23T18:20:39.711Z,59.90
2022-08-23T18:22:41.555Z,59.70
2022-08-23T18:24:43.523Z,59.90
2022-08-23T18:27:03.691Z,60.50
2022-08-23T18:29:06.987Z,61.80
2022-08-23T18:31:08.821Z,62.80
2022-08-23T18:33:12.655Z,63.70
2022-08-23T18:35:14.995Z,64.60
2022-08-23T18:37:17.238Z,65.10
2022-08-23T18:39:31.899Z,65.40
2022-08-23T18:41:34.434Z,66.00
2022-08-23T18:43:37.508Z,66.40
2022-08-23T18:45:39.719Z,66.80
2022-08-23T18:47:41.553Z,67.60
2022-08-23T18:49:43.387Z,67.70
2022-08-23T18:51:45.181Z,68.10
2022-08-23T18:53:47.255Z,69.10
2022-08-23T18:55:50.099Z,70.10
2022-08-23T18:57:51.874Z,70.70
2022-08-23T18:59:53.673Z,70.80
2022-08-23T19:01:56.049Z,70.90
2022-08-23T19:04:03.251Z,71.20
2022-08-23T19:06:05.237Z,71.80
2022-08-23T19:08:07.235Z,72.20
2022-08-23T19:10:09.566Z,72.60
2022-08-23T19:12:11.566Z,73.10
2022-08-23T19:14:13.892Z,73.30
2022-08-23T19:16:17.543Z,73.70
2022-08-23T19:18:19.424Z,74.20
2022-08-23T19:20:21.361Z,74.80
2022-08-23T19:22:23.606Z,75.00
2022-08-23T19:24:25.845Z,75.50
2022-08-23T19:26:31.820Z,76.30
2022-08-23T19:28:33.701Z,76.90
2022-08-23T19:30:35.646Z,77.30
2022-08-23T19:32:39.530Z,77.30
2022-08-23T19:34:42.243Z,77.60
2022-08-23T19:36:48.267Z,77.80
2022-08-23T19:38:55.848Z,78.30
2022-08-23T19:40:58.416Z,78.80
2022-08-23T19:43:01.415Z,79.10
2022-08-23T19:45:06.294Z,79.40
2022-08-23T19:47:08.255Z,80.10
2022-08-23T19:49:21.048Z,80.70
2022-08-23T19:51:24.642Z,82.40
2022-08-23T19:53:26.588Z,82.10
2022-08-23T19:55:28.655Z,82.80
2022-08-23T19:57:31.340Z,82.80
2022-08-23T19:59:39.174Z,82.80
2022-08-23T20:01:41.074Z,83.30
2022-08-23T20:03:42.905Z,83.60
2022-08-23T20:05:44.713Z,84.40
2022-08-23T20:07:47.255Z,83.80
2022-08-23T20:09:49.101Z,84.30
2022-08-23T20:11:54.992Z,84.70
2022-08-23T20:13:56.907Z,85.50
2022-08-23T20:15:58.703Z,86.50
2022-08-23T20:18:00.526Z,86.40
2022-08-23T20:20:02.906Z,86.70
2022-08-23T20:22:23.351Z,87.10
2022-08-23T20:24:37.498Z,87.80
2022-08-23T20:26:49.184Z,88.50
2022-08-23T20:28:59.445Z,88.90
2022-08-23T20:31:30.306Z,89.40
2022-08-23T20:33:32.633Z,90.10
2022-08-23T20:35:34.463Z,90.00
2022-08-23T20:37:36.317Z,90.20
2022-08-23T20:39:38.316Z,90.40
2022-08-23T20:41:41.033Z,90.60
2022-08-23T20:43:42.814Z,90.80
2022-08-23T20:45:44.590Z,91.50
2022-08-23T20:47:49.883Z,91.30
2022-08-23T20:49:51.804Z,91.80
2022-08-23T20:51:53.616Z,92.00
2022-08-23T20:53:56.527Z,92.30
2022-08-23T20:55:58.839Z,92.50
2022-08-23T20:58:00.799Z,92.80
2022-08-23T21:00:02.981Z,93.00
2022-08-23T21:02:05.095Z,93.10
2022-08-23T21:04:07.177Z,93.40
2022-08-23T21:06:21.792Z,93.40
2022-08-23T21:08:23.645Z,93.60
2022-08-23T21:10:27.303Z,93.70
2022-08-23T21:12:29.080Z,93.90
2022-08-23T21:14:30.855Z,94.00
2022-08-23T21:16:32.871Z,94.20
2022-08-23T21:18:34.879Z,94.30
2022-08-23T21:20:37.108Z,94.70
2022-08-23T21:22:38.913Z,95.00
2022-08-23T21:24:40.829Z,95.20
2022-08-23T21:26:43.068Z,95.30
2022-08-23T21:28:45.050Z,95.50
2022-08-23T21:30:47.139Z,95.70
2022-08-23T21:32:49.163Z,95.70
2022-08-23T21:34:51.027Z,96.00
2022-08-23T21:36:53.385Z,96.20
2022-08-23T21:38:55.477Z,96.50
2022-08-23T21:40:59.110Z,96.70
2022-08-23T21:43:01.186Z,97.00
2022-08-23T21:45:04.640Z,97.10
2022-08-23T21:47:06.918Z,97.30
2022-08-23T21:49:09.400Z,97.50
2022-08-23T21:51:14.355Z,97.60
2022-08-23T21:53:16.229Z,97.90
2022-08-23T21:55:18.149Z,98.10
2022-08-23T21:57:19.935Z,98.30
2022-08-23T21:59:22.157Z,98.30
2022-08-23T22:01:24.082Z,98.50
2022-08-23T22:03:25.982Z,98.70
2022-08-23T22:05:27.937Z,98.80
2022-08-23T22:07:29.721Z,98.90
2022-08-23T22:09:33.335Z,99.20
2022-08-23T22:11:40.723Z,99.40
2022-08-23T22:13:43.062Z,99.40
2022-08-23T22:15:44.914Z,99.50
2022-08-23T22:17:46.732Z,99.60
2022-08-23T22:19:48.548Z,99.80
2022-08-23T22:21:52.298Z,99.90
2022-08-23T22:23:54.088Z,99.90
2022-08-23T22:26:05.051Z,99.90
2022-08-23T22:28:06.842Z,99.90
2022-08-23T22:30:09.501Z,99.90
2022-08-23T22:32:11.410Z,99.90
2022-08-23T22:34:13.283Z,99.90
2022-08-23T22:36:18.920Z,99.90
2022-08-23T22:38:20.773Z,99.90
2022-08-23T22:40:22.786Z,99.90
2022-08-23T22:42:24.623Z,99.90
2022-08-23T22:44:26.430Z,99.90
2022-08-23T22:46:31.019Z,99.90
2022-08-23T22:48:37.368Z,99.90
2022-08-23T22:50:39.150Z,99.90
2022-08-23T22:52:42.164Z,99.90
2022-08-23T22:54:43.963Z,99.90
2022-08-23T22:56:50.984Z,99.90
2022-08-23T22:58:53.468Z,99.90
2022-08-23T23:00:55.725Z,99.90
2022-08-23T23:02:58.478Z,99.90
2022-08-23T23:05:00.313Z,99.90
2022-08-23T23:07:02.657Z,99.90
2022-08-23T23:09:07.397Z,99.90
2022-08-23T23:11:12.161Z,99.90
2022-08-23T23:13:13.981Z,99.90
2022-08-23T23:15:15.892Z,99.90
2022-08-23T23:17:17.680Z,99.90
2022-08-23T23:19:39.081Z,99.90
2022-08-23T23:21:46.776Z,99.90
2022-08-23T23:23:48.566Z,99.90
2022-08-23T23:25:51.266Z,99.90
2022-08-23T23:27:53.060Z,99.90
2022-08-23T23:29:54.957Z,99.90
2022-08-23T23:31:58.829Z,99.90
2022-08-23T23:34:00.805Z,99.90
2022-08-23T23:36:02.741Z,99.90
2022-08-23T23:38:06.350Z,99.90
2022-08-23T23:40:08.871Z,99.90
2022-08-23T23:42:10.708Z,99.90
2022-08-23T23:44:12.525Z,99.90
2022-08-23T23:46:17.777Z,99.90
2022-08-23T23:48:19.900Z,99.90
2022-08-23T23:50:22.320Z,99.90
2022-08-23T23:52:24.658Z,99.90
2022-08-23T23:54:26.493Z,99.90
2022-08-23T23:56:29.808Z,99.90
2022-08-23T23:58:32.147Z,99.90
